createdAt,value
2023-03-01T00:00:50.593Z,0.60
2023-03-01T00:03:23.620Z,0.50
2023-03-01T00:05:53.835Z,0.50
2023-03-01T00:08:23.981Z,0.60
2023-03-01T00:11:07.219Z,0.60
2023-03-01T00:13:38.871Z,0.70
2023-03-01T00:16:11.265Z,0.80
2023-03-01T00:18:44.695Z,0.80
2023-03-01T00:21:15.291Z,0.80
2023-03-01T00:23:45.632Z,0.80
2023-03-01T00:26:18.865Z,0.60
2023-03-01T00:28:49.459Z,0.50
2023-03-01T00:31:22.809Z,0.40
2023-03-01T00:33:58.371Z,0.40
2023-03-01T00:36:33.105Z,0.60
2023-03-01T00:39:04.116Z,0.70
2023-03-01T00:41:37.951Z,0.70
2023-03-01T00:44:08.378Z,0.70
2023-03-01T00:46:38.619Z,0.70
2023-03-01T00:49:11.543Z,0.60
2023-03-01T00:51:44.840Z,0.60
2023-03-01T00:54:14.975Z,0.40
2023-03-01T00:56:45.215Z,0.40
2023-03-01T00:59:15.445Z,0.40
2023-03-01T01:01:45.954Z,0.50
2023-03-01T01:04:19.109Z,0.50
2023-03-01T01:06:50.750Z,0.40
2023-03-01T01:09:21.767Z,0.40
2023-03-01T01:11:55.384Z,0.50
2023-03-01T01:14:26.777Z,0.40
2023-03-01T01:16:56.984Z,0.40
2023-03-01T01:19:30.644Z,0.40
2023-03-01T01:22:00.898Z,0.30
2023-03-01T01:24:31.116Z,0.30
2023-03-01T01:27:01.377Z,0.30
2023-03-01T01:29:31.668Z,0.20
2023-03-01T01:32:01.862Z,0.10
2023-03-01T01:34:36.822Z,0.10
2023-03-01T01:37:09.908Z,0.10
2023-03-01T01:39:42.366Z,0.20
2023-03-01T01:42:18.831Z,0.30
2023-03-01T01:44:52.528Z,0.30
2023-03-01T01:47:27.009Z,0.30
2023-03-01T01:50:01.174Z,0.20
2023-03-01T01:52:38.175Z,0.00
2023-03-01T01:55:15.882Z,0.10
2023-03-01T01:57:50.339Z,0.10
2023-03-01T02:00:24.611Z,-0.10
2023-03-01T02:03:01.720Z,-0.10
2023-03-01T02:05:44.356Z,-0.10
2023-03-01T02:08:20.726Z,-0.20
2023-03-01T02:10:55.836Z,-0.10
2023-03-01T02:13:26.159Z,-0.10
2023-03-01T02:15:57.181Z,0.00
2023-03-01T02:18:29.154Z,0.00
2023-03-01T02:21:21.281Z,-0.20
2023-03-01T02:23:51.622Z,-0.40
2023-03-01T02:26:38.042Z,-0.70
2023-03-01T02:29:10.912Z,-1.00
2023-03-01T02:31:47.137Z,-1.30
2023-03-01T02:34:21.383Z,-1.40
2023-03-01T02:36:57.508Z,-1.50
2023-03-01T02:39:34.320Z,-1.60
2023-03-01T02:42:08.084Z,-1.60
2023-03-01T02:44:40.740Z,-1.60
2023-03-01T02:47:10.987Z,-1.70
2023-03-01T02:49:41.895Z,-1.80
2023-03-01T02:52:32.148Z,-1.90
2023-03-01T02:55:09.956Z,-1.90
2023-03-01T02:57:44.553Z,-2.00
2023-03-01T03:00:26.745Z,-2.00
2023-03-01T03:03:00.745Z,-2.00
2023-03-01T03:05:35.034Z,-2.10
2023-03-01T03:08:10.357Z,-2.20
2023-03-01T03:10:44.557Z,-2.20
2023-03-01T03:13:18.228Z,-2.20
2023-03-01T03:15:50.938Z,-2.20
2023-03-01T03:18:21.756Z,-2.20
2023-03-01T03:20:54.698Z,-2.30
2023-03-01T03:23:25.839Z,-2.30
2023-03-01T03:25:56.236Z,-2.20
2023-03-01T03:28:26.437Z,-2.20
2023-03-01T03:30:59.395Z,-2.30
2023-03-01T03:33:30.861Z,-2.30
2023-03-01T03:36:01.083Z,-2.40
2023-03-01T03:38:31.241Z,-2.40
2023-03-01T03:41:08.294Z,-2.40
2023-03-01T03:43:43.717Z,-2.40
2023-03-01T03:46:18.095Z,-2.30
2023-03-01T03:48:51.371Z,-2.30
2023-03-01T03:51:23.740Z,-2.40
2023-03-01T03:53:53.962Z,-2.40
2023-03-01T03:56:28.571Z,-2.40
2023-03-01T03:58:59.212Z,-2.30
2023-03-01T04:01:42.017Z,-2.30
2023-03-01T04:04:14.677Z,-2.30
2023-03-01T04:06:44.812Z,-2.40
2023-03-01T04:09:14.930Z,-2.60
2023-03-01T04:11:45.024Z,-2.70
2023-03-01T04:14:15.201Z,-2.60
2023-03-01T04:16:48.184Z,-2.70
2023-03-01T04:19:18.310Z,-2.70
2023-03-01T04:21:48.421Z,-2.70
2023-03-01T04:24:18.559Z,-2.70
2023-03-01T04:26:49.910Z,-2.70
2023-03-01T04:29:20.124Z,-2.70
2023-03-01T04:31:52.985Z,-2.70
2023-03-01T04:34:23.510Z,-2.60
2023-03-01T04:36:53.647Z,-2.60
2023-03-01T04:39:24.190Z,-2.70
2023-03-01T04:41:54.356Z,-2.70
2023-03-01T04:44:24.577Z,-2.80
2023-03-01T04:46:57.246Z,-2.90
2023-03-01T04:49:29.506Z,-2.90
2023-03-01T04:52:03.046Z,-3.00
2023-03-01T04:54:33.690Z,-3.00
2023-03-01T04:57:04.712Z,-3.00
2023-03-01T04:59:34.887Z,-3.00
2023-03-01T05:02:07.544Z,-3.00
2023-03-01T05:04:37.696Z,-2.90
2023-03-01T05:07:07.874Z,-3.00
2023-03-01T05:09:39.636Z,-3.00
2023-03-01T05:12:11.216Z,-3.00
2023-03-01T05:14:42.232Z,-3.10
2023-03-01T05:17:14.921Z,-3.10
2023-03-01T05:19:45.050Z,-3.10
2023-03-01T05:22:15.114Z,-3.10
2023-03-01T05:24:45.201Z,-3.10
2023-03-01T05:27:15.878Z,-3.10
2023-03-01T05:29:46.424Z,-3.20
2023-03-01T05:32:19.203Z,-3.20
2023-03-01T05:34:50.000Z,-3.20
2023-03-01T05:37:20.523Z,-3.20
2023-03-01T05:39:51.467Z,-3.20
2023-03-01T05:42:23.749Z,-3.20
2023-03-01T05:44:53.954Z,-3.30
2023-03-01T05:47:32.716Z,-3.30
2023-03-01T05:50:02.958Z,-3.20
2023-03-01T05:52:33.350Z,-3.10
2023-03-01T05:55:03.541Z,-3.20
2023-03-01T05:57:33.655Z,-3.30
2023-03-01T06:00:04.029Z,-3.20
2023-03-01T06:02:36.920Z,-3.20
2023-03-01T06:05:08.054Z,-3.20
2023-03-01T06:07:38.780Z,-3.20
2023-03-01T06:10:12.376Z,-3.30
2023-03-01T06:12:47.288Z,-3.30
2023-03-01T06:15:19.739Z,-3.30
2023-03-01T06:18:00.709Z,-3.30
2023-03-01T06:20:32.835Z,-3.30
2023-03-01T06:23:03.337Z,-3.20
2023-03-01T06:25:33.715Z,-3.30
2023-03-01T06:28:05.496Z,-3.40
2023-03-01T06:30:36.279Z,-3.30
2023-03-01T06:33:10.259Z,-3.30
2023-03-01T06:35:40.675Z,-3.30
2023-03-01T06:38:13.999Z,-3.30
2023-03-01T06:40:44.506Z,-3.20
2023-03-01T06:43:15.224Z,-3.30
2023-03-01T06:45:45.332Z,-3.30
2023-03-01T06:48:19.416Z,-3.20
2023-03-01T06:50:52.064Z,-3.30
2023-03-01T06:53:25.294Z,-3.30
2023-03-01T06:56:00.244Z,-3.20
2023-03-01T06:58:30.503Z,-3.30
2023-03-01T07:01:00.642Z,-3.30
2023-03-01T07:03:33.316Z,-3.30
2023-03-01T07:06:03.445Z,-3.20
2023-03-01T07:08:33.510Z,-3.10
2023-03-01T07:11:05.185Z,-3.10
2023-03-01T07:13:38.332Z,-3.00
2023-03-01T07:16:12.223Z,-3.10
2023-03-01T07:18:45.726Z,-3.10
2023-03-01T07:21:18.207Z,-3.00
2023-03-01T07:23:51.195Z,-3.00
2023-03-01T07:26:21.408Z,-2.90
2023-03-01T07:28:53.686Z,-2.80
2023-03-01T07:31:23.999Z,-2.90
2023-03-01T07:33:56.856Z,-2.70
2023-03-01T07:36:28.108Z,-2.60
2023-03-01T07:38:58.937Z,-2.50
2023-03-01T07:41:29.181Z,-2.50
2023-03-01T07:43:59.556Z,-2.40
2023-03-01T07:46:30.952Z,-2.30
2023-03-01T07:49:07.191Z,-2.20
2023-03-01T07:51:37.500Z,-1.90
2023-03-01T07:54:08.009Z,-1.60
2023-03-01T07:56:38.936Z,-1.40
2023-03-01T07:59:09.082Z,-0.60
2023-03-01T08:01:39.430Z,1.40
2023-03-01T08:04:12.672Z,4.00
2023-03-01T08:06:42.829Z,5.80
2023-03-01T08:09:12.966Z,5.10
2023-03-01T08:11:43.167Z,4.80
2023-03-01T08:14:14.152Z,4.70
2023-03-01T08:16:44.452Z,5.20
2023-03-01T08:19:17.189Z,5.80
2023-03-01T08:21:47.508Z,5.70
2023-03-01T08:24:17.770Z,5.50
2023-03-01T08:26:47.951Z,6.20
2023-03-01T08:29:18.063Z,5.70
2023-03-01T08:31:48.343Z,4.50
2023-03-01T08:34:22.222Z,5.00
2023-03-01T08:36:53.768Z,4.40
2023-03-01T08:39:24.799Z,4.30
2023-03-01T08:41:54.951Z,3.80
2023-03-01T08:44:25.583Z,3.20
2023-03-01T08:46:57.243Z,2.70
2023-03-01T08:49:29.955Z,2.60
2023-03-01T08:52:00.266Z,2.60
2023-03-01T08:54:30.400Z,2.70
2023-03-01T08:57:00.779Z,3.20
2023-03-01T08:59:31.585Z,4.30
2023-03-01T09:02:01.791Z,4.20
2023-03-01T09:04:35.006Z,4.40
2023-03-01T09:07:05.167Z,4.10
2023-03-01T09:09:35.357Z,4.80
2023-03-01T09:12:06.469Z,5.50
2023-03-01T09:14:38.323Z,5.50
2023-03-01T09:17:08.577Z,5.10
2023-03-01T09:19:41.626Z,4.70
2023-03-01T09:22:11.714Z,4.50
2023-03-01T09:24:41.820Z,4.70
2023-03-01T09:27:13.868Z,4.70
2023-03-01T09:29:44.024Z,5.90
2023-03-01T09:32:14.313Z,6.70
2023-03-01T09:34:59.482Z,6.90
2023-03-01T09:37:31.075Z,8.90
2023-03-01T09:40:01.378Z,10.20
2023-03-01T09:42:37.551Z,11.90
2023-03-01T09:45:15.142Z,13.80
2023-03-01T09:47:45.596Z,13.70
2023-03-01T09:50:24.710Z,14.40
2023-03-01T09:53:05.503Z,14.30
2023-03-01T09:55:43.635Z,14.30
2023-03-01T09:58:41.411Z,15.20
2023-03-01T10:01:36.283Z,13.90
2023-03-01T10:04:45.183Z,14.80
2023-03-01T10:07:43.989Z,15.30
2023-03-01T10:10:30.830Z,15.00
2023-03-01T10:13:14.465Z,14.40
2023-03-01T10:15:56.329Z,14.70
2023-03-01T10:18:31.673Z,13.80
2023-03-01T10:21:05.327Z,14.30
2023-03-01T10:23:40.287Z,14.80
2023-03-01T10:26:38.740Z,14.50
2023-03-01T10:29:12.870Z,15.20
2023-03-01T10:31:47.986Z,14.90
2023-03-01T10:34:21.469Z,14.80
2023-03-01T10:36:56.380Z,15.00
2023-03-01T10:39:30.759Z,15.40
2023-03-01T10:42:06.662Z,15.90
2023-03-01T10:44:45.593Z,14.30
2023-03-01T10:47:24.427Z,14.10
2023-03-01T10:50:06.739Z,14.00
2023-03-01T10:52:42.976Z,15.00
2023-03-01T10:55:35.146Z,15.00
2023-03-01T10:58:23.192Z,14.10
2023-03-01T11:00:59.243Z,15.00
2023-03-01T11:03:34.319Z,15.10
2023-03-01T11:06:23.257Z,14.40
2023-03-01T11:08:55.636Z,13.60
2023-03-01T11:11:35.970Z,14.80
2023-03-01T11:14:26.948Z,15.30
2023-03-01T11:17:07.430Z,15.50
2023-03-01T11:19:37.667Z,14.70
2023-03-01T11:22:15.757Z,14.50
2023-03-01T11:25:00.096Z,14.40
2023-03-01T11:27:46.966Z,14.90
2023-03-01T11:30:26.834Z,14.00
2023-03-01T11:33:16.801Z,14.70
2023-03-01T11:35:59.451Z,15.50
2023-03-01T11:38:33.171Z,14.80
2023-03-01T11:41:12.475Z,15.10
2023-03-01T11:43:56.527Z,14.10
2023-03-01T11:47:10.867Z,13.40
2023-03-01T11:50:34.180Z,13.80
2023-03-01T11:53:38.056Z,13.60
2023-03-01T11:56:26.073Z,13.50
2023-03-01T11:59:24.324Z,13.30
2023-03-01T12:02:24.290Z,13.40
2023-03-01T12:05:27.234Z,13.20
2023-03-01T12:08:13.724Z,12.30
2023-03-01T12:10:59.952Z,11.50
2023-03-01T12:14:04.460Z,10.70
2023-03-01T12:16:57.329Z,10.00
2023-03-01T12:20:00.509Z,9.80
2023-03-01T12:22:46.264Z,9.60
2023-03-01T12:25:35.048Z,8.90
2023-03-01T12:28:32.104Z,8.50
2023-03-01T12:31:42.728Z,8.60
2023-03-01T12:34:37.818Z,8.50
2023-03-01T12:37:43.954Z,8.70
2023-03-01T12:41:01.141Z,8.60
2023-03-01T12:43:52.527Z,8.90
2023-03-01T12:46:54.558Z,9.10
2023-03-01T12:49:33.806Z,9.10
2023-03-01T12:52:17.142Z,8.80
2023-03-01T12:54:49.459Z,8.80
2023-03-01T12:57:38.131Z,8.80
2023-03-01T13:00:31.852Z,8.90
2023-03-01T13:03:26.945Z,8.70
2023-03-01T13:06:15.231Z,8.90
2023-03-01T13:08:58.970Z,9.20
2023-03-01T13:11:29.066Z,9.30
2023-03-01T13:14:51.930Z,9.10
2023-03-01T13:17:50.947Z,9.10
2023-03-01T13:20:25.505Z,9.10
2023-03-01T13:23:15.097Z,9.10
2023-03-01T13:26:26.282Z,9.20
2023-03-01T13:29:02.330Z,9.20
2023-03-01T13:32:05.737Z,9.20
2023-03-01T13:34:56.008Z,9.30
2023-03-01T13:37:41.657Z,9.50
2023-03-01T13:41:10.702Z,9.40
2023-03-01T13:43:44.487Z,9.30
2023-03-01T13:46:22.136Z,9.20
2023-03-01T13:49:00.424Z,9.10
2023-03-01T13:51:32.242Z,9.00
2023-03-01T13:54:03.194Z,9.10
2023-03-01T13:56:41.578Z,9.10
2023-03-01T13:59:20.919Z,9.00
2023-03-01T14:01:58.131Z,9.10
2023-03-01T14:04:36.908Z,9.20
2023-03-01T14:07:25.189Z,9.20
2023-03-01T14:10:00.362Z,9.20
2023-03-01T14:12:52.232Z,9.20
2023-03-01T14:15:31.113Z,9.20
2023-03-01T14:18:08.263Z,9.40
2023-03-01T14:20:48.335Z,9.50
2023-03-01T14:23:27.959Z,9.40
2023-03-01T14:26:01.837Z,9.30
2023-03-01T14:28:39.914Z,9.20
2023-03-01T14:31:52.085Z,9.10
2023-03-01T14:34:28.363Z,9.30
2023-03-01T14:37:14.059Z,9.30
2023-03-01T14:39:44.230Z,9.20
2023-03-01T14:42:17.043Z,9.10
2023-03-01T14:44:51.290Z,9.30
2023-03-01T14:47:32.039Z,9.30
2023-03-01T14:50:08.633Z,9.40
2023-03-01T14:52:46.124Z,9.40
2023-03-01T14:55:22.906Z,9.40
2023-03-01T14:57:55.578Z,9.40
2023-03-01T15:00:30.201Z,9.40
2023-03-01T15:03:10.825Z,9.20
2023-03-01T15:05:42.854Z,9.20
2023-03-01T15:08:24.642Z,9.20
2023-03-01T15:11:08.943Z,9.20
2023-03-01T15:13:40.198Z,9.20
2023-03-01T15:16:14.934Z,9.10
2023-03-01T15:18:51.723Z,9.20
2023-03-01T15:21:29.649Z,9.20
2023-03-01T15:24:24.172Z,9.20
2023-03-01T15:26:58.678Z,9.20
2023-03-01T15:29:41.425Z,9.20
2023-03-01T15:32:33.671Z,9.30
2023-03-01T15:35:46.672Z,9.20
2023-03-01T15:38:41.464Z,9.20
2023-03-01T15:41:32.145Z,9.00
2023-03-01T15:44:04.330Z,8.90
2023-03-01T15:46:38.585Z,8.80
2023-03-01T15:49:31.061Z,8.70
2023-03-01T15:52:01.376Z,8.70
2023-03-01T15:54:33.127Z,8.60
2023-03-01T15:57:05.982Z,8.60
2023-03-01T15:59:36.339Z,8.70
2023-03-01T16:02:13.572Z,8.60
2023-03-01T16:04:46.223Z,8.50
2023-03-01T16:07:16.394Z,8.40
2023-03-01T16:09:47.208Z,8.30
2023-03-01T16:12:22.291Z,8.20
2023-03-01T16:14:54.034Z,8.20
2023-03-01T16:17:24.162Z,8.10
2023-03-01T16:19:54.376Z,8.00
2023-03-01T16:22:26.267Z,7.90
2023-03-01T16:24:56.625Z,7.70
2023-03-01T16:27:29.359Z,7.70
2023-03-01T16:30:02.440Z,7.70
2023-03-01T16:32:32.648Z,7.60
2023-03-01T16:35:02.966Z,7.50
2023-03-01T16:37:37.250Z,7.40
2023-03-01T16:40:19.484Z,7.40
2023-03-01T16:42:52.273Z,7.30
2023-03-01T16:45:25.083Z,7.20
2023-03-01T16:47:58.802Z,7.20
2023-03-01T16:50:32.563Z,7.00
2023-03-01T16:53:03.563Z,6.90
2023-03-01T16:55:33.978Z,7.00
2023-03-01T16:58:08.627Z,6.90
2023-03-01T17:00:38.736Z,6.80
2023-03-01T17:03:08.881Z,6.70
2023-03-01T17:05:39.042Z,6.70
2023-03-01T17:08:09.706Z,6.70
2023-03-01T17:10:40.108Z,6.60
2023-03-01T17:13:15.670Z,6.50
2023-03-01T17:15:51.329Z,6.40
2023-03-01T17:18:25.207Z,6.30
2023-03-01T17:20:55.775Z,6.10
2023-03-01T17:23:26.079Z,6.00
2023-03-01T17:25:56.898Z,6.00
2023-03-01T17:28:34.470Z,5.80
2023-03-01T17:31:07.224Z,5.80
2023-03-01T17:33:37.755Z,5.70
2023-03-01T17:36:11.284Z,5.70
2023-03-01T17:38:41.424Z,5.70
2023-03-01T17:41:12.321Z,5.70
2023-03-01T17:43:44.974Z,5.60
2023-03-01T17:46:15.699Z,5.50
2023-03-01T17:48:45.819Z,5.50
2023-03-01T17:51:16.111Z,5.40
2023-03-01T17:53:46.294Z,5.30
2023-03-01T17:56:16.488Z,5.30
2023-03-01T17:58:49.647Z,5.30
2023-03-01T18:01:25.531Z,5.30
2023-03-01T18:03:58.319Z,5.20
2023-03-01T18:06:31.136Z,5.20
2023-03-01T18:09:01.442Z,5.10
2023-03-01T18:11:32.961Z,5.20
2023-03-01T18:14:07.208Z,5.10
2023-03-01T18:16:39.772Z,5.00
2023-03-01T18:19:10.013Z,4.90
2023-03-01T18:21:41.887Z,5.00
2023-03-01T18:24:20.945Z,4.90
2023-03-01T18:26:51.189Z,4.90
2023-03-01T18:29:23.919Z,4.80
2023-03-01T18:31:56.893Z,4.70
2023-03-01T18:34:28.827Z,4.70
2023-03-01T18:37:09.519Z,4.70
2023-03-01T18:39:45.520Z,4.70
2023-03-01T18:42:16.446Z,4.70
2023-03-01T18:44:49.339Z,4.70
2023-03-01T18:47:19.969Z,4.70
2023-03-01T18:49:50.094Z,4.70
2023-03-01T18:52:20.197Z,4.60
2023-03-01T18:54:50.466Z,4.50
2023-03-01T18:57:20.547Z,4.50
2023-03-01T18:59:53.285Z,4.50
2023-03-01T19:02:24.854Z,4.40
2023-03-01T19:04:55.202Z,4.40
2023-03-01T19:07:25.591Z,4.40
2023-03-01T19:09:55.750Z,4.40
2023-03-01T19:12:28.165Z,4.30
2023-03-01T19:15:00.937Z,4.30
2023-03-01T19:17:33.767Z,4.20
2023-03-01T19:20:04.008Z,4.20
2023-03-01T19:22:35.659Z,4.10
2023-03-01T19:25:06.183Z,4.00
2023-03-01T19:27:36.293Z,3.90
2023-03-01T19:30:13.455Z,3.80
2023-03-01T19:32:46.509Z,3.80
2023-03-01T19:35:19.048Z,3.90
2023-03-01T19:40:46.848Z,3.70
2023-03-01T19:43:20.769Z,3.90
2023-03-01T19:45:58.362Z,3.90
2023-03-01T19:48:28.792Z,3.90
2023-03-01T19:50:59.541Z,3.90
2023-03-01T19:53:30.012Z,3.90
2023-03-01T19:56:01.225Z,3.90
2023-03-01T19:58:34.049Z,3.80
2023-03-01T20:01:19.110Z,3.70
2023-03-01T20:03:50.811Z,3.60
2023-03-01T20:06:23.245Z,3.40
2023-03-01T20:08:53.378Z,3.30
2023-03-01T20:11:24.753Z,3.20
2023-03-01T20:13:54.895Z,3.10
2023-03-01T20:16:30.787Z,3.10
2023-03-01T20:19:03.850Z,3.00
2023-03-01T20:21:34.321Z,2.90
2023-03-01T20:24:04.905Z,2.70
2023-03-01T20:26:35.242Z,2.70
2023-03-01T20:29:05.444Z,2.60
2023-03-01T20:31:39.897Z,2.50
2023-03-01T20:34:10.095Z,2.40
2023-03-01T20:36:55.212Z,2.40
2023-03-01T20:39:27.430Z,2.30
2023-03-01T20:41:57.493Z,2.30
2023-03-01T20:44:27.572Z,2.30
2023-03-01T20:47:00.360Z,2.40
2023-03-01T20:49:33.338Z,2.40
2023-03-01T20:52:03.480Z,2.40
2023-03-01T20:54:33.614Z,2.40
2023-03-01T20:57:03.738Z,2.40
2023-03-01T20:59:34.969Z,2.50
2023-03-01T21:02:07.713Z,2.60
2023-03-01T21:04:37.851Z,2.70
2023-03-01T21:07:08.001Z,2.60
2023-03-01T21:09:39.871Z,2.40
2023-03-01T21:12:10.773Z,2.30
2023-03-01T21:14:47.230Z,2.20
2023-03-01T21:17:21.404Z,2.10
2023-03-01T21:19:51.556Z,2.10
2023-03-01T21:22:21.787Z,2.20
2023-03-01T21:24:56.040Z,2.20
2023-03-01T21:27:26.457Z,2.50
2023-03-01T21:29:56.787Z,2.70
2023-03-01T21:32:29.627Z,2.90
2023-03-01T21:34:59.787Z,3.00
2023-03-01T21:37:30.179Z,3.00
2023-03-01T21:40:00.741Z,3.00
2023-03-01T21:42:31.994Z,3.10
2023-03-01T21:45:02.464Z,3.00
2023-03-01T21:47:36.299Z,3.00
2023-03-01T21:50:08.625Z,3.00
2023-03-01T21:52:38.841Z,2.90
2023-03-01T21:55:10.432Z,2.90
2023-03-01T21:57:43.778Z,2.80
2023-03-01T22:00:18.077Z,2.80
2023-03-01T22:02:50.877Z,2.80
2023-03-01T22:05:20.952Z,2.70
2023-03-01T22:07:51.045Z,2.70
2023-03-01T22:10:26.959Z,2.70
2023-03-01T22:12:58.111Z,2.80
2023-03-01T22:15:29.958Z,2.80
2023-03-01T22:18:03.355Z,2.80
2023-03-01T22:20:33.506Z,2.90
2023-03-01T22:23:03.867Z,2.80
2023-03-01T22:25:35.120Z,2.80
2023-03-01T22:28:05.440Z,2.80
2023-03-01T22:30:35.923Z,2.80
2023-03-01T22:33:09.166Z,2.80
2023-03-01T22:35:39.324Z,2.80
2023-03-01T22:38:09.570Z,2.80
2023-03-01T22:40:40.063Z,2.70
2023-03-01T22:43:10.283Z,2.50
2023-03-01T22:45:43.377Z,2.40
2023-03-01T22:48:16.323Z,2.40
2023-03-01T22:50:51.002Z,2.30
2023-03-01T22:53:24.160Z,2.30
2023-03-01T22:55:54.302Z,2.40
2023-03-01T22:58:24.722Z,2.50
2023-03-01T23:00:54.850Z,2.50
2023-03-01T23:03:27.630Z,2.50
2023-03-01T23:05:57.801Z,2.50
2023-03-01T23:08:27.951Z,2.40
2023-03-01T23:10:58.092Z,2.40
2023-03-01T23:13:28.555Z,2.40
2023-03-01T23:16:00.623Z,2.30
2023-03-01T23:18:33.400Z,2.30
2023-03-01T23:21:03.565Z,2.20
2023-03-01T23:23:33.693Z,2.20
2023-03-01T23:26:03.767Z,2.30
2023-03-01T23:28:33.984Z,2.20
2023-03-01T23:31:07.956Z,2.10
2023-03-01T23:33:43.146Z,1.90
2023-03-01T23:36:20.959Z,2.00
2023-03-01T23:38:54.149Z,2.00
2023-03-01T23:41:27.691Z,2.10
2023-03-01T23:44:00.527Z,2.00
2023-03-01T23:46:35.286Z,2.00
2023-03-01T23:49:08.566Z,1.90
2023-03-01T23:51:38.655Z,1.70
2023-03-01T23:54:09.172Z,1.70
2023-03-01T23:56:42.020Z,1.70
2023-03-01T23:59:16.430Z,2.00
